Time;durP1;ratioP1;P1;durP2;ratioP2;P2;SDS_P1;SDS_P2;PMS_P1;PMS_P2;Temp;Humidity;BMP_temperature;BMP_pressure;BME280_temperature;BME280_humidity;BME280_pressure;Samples;Min_cycle;Max_cycle;Signal;HPM_P1;HPM_P2
2021/07/24 00:00:17;;;;;;;17.83;11.88;;;16.90;99.90;;;;;;5047256;28;20037;-80
2021/07/24 00:02:43;;;;;;;17.50;13.00;;;16.90;99.90;;;;;;5047259;28;20032;-80
2021/07/24 00:05:09;;;;;;;17.75;12.50;;;16.90;99.90;;;;;;5042989;28;20052;-80
2021/07/24 00:07:35;;;;;;;19.05;12.55;;;16.80;99.90;;;;;;5047563;28;20041;-80
2021/07/24 00:10:00;;;;;;;16.17;12.27;;;16.80;99.90;;;;;;5045538;28;20033;-80
2021/07/24 00:12:26;;;;;;;17.80;12.85;;;16.70;99.90;;;;;;5047551;28;20094;-80
2021/07/24 00:14:52;;;;;;;17.08;13.13;;;16.70;99.90;;;;;;5045657;28;20527;-80
2021/07/24 00:17:17;;;;;;;18.55;13.63;;;16.70;99.90;;;;;;5047271;28;20106;-80
2021/07/24 00:19:43;;;;;;;17.25;12.73;;;16.60;99.90;;;;;;5046941;28;20033;-80
2021/07/24 00:22:09;;;;;;;22.95;13.52;;;16.60;99.90;;;;;;5032931;28;20043;-80
2021/07/24 00:24:34;;;;;;;18.02;12.43;;;16.60;99.90;;;;;;5047183;28;20033;-80
2021/07/24 00:27:01;;;;;;;22.52;14.13;;;16.50;99.90;;;;;;5040815;28;20037;-80
2021/07/24 00:29:27;;;;;;;22.40;15.70;;;16.50;99.90;;;;;;5035979;28;20049;-80
2021/07/24 00:31:52;;;;;;;23.15;15.98;;;16.40;99.90;;;;;;5046409;28;20025;-80
2021/07/24 00:34:18;;;;;;;20.73;15.75;;;16.40;99.90;;;;;;5033815;28;20029;-80
2021/07/24 00:36:44;;;;;;;23.17;15.25;;;16.40;99.90;;;;;;5047345;28;20032;-80
2021/07/24 00:39:10;;;;;;;21.75;14.60;;;16.30;99.90;;;;;;5046871;28;20021;-80
2021/07/24 00:41:51;;;;;;;22.55;15.55;;;16.30;99.90;;;;;;5047276;28;20868;-80
2021/07/24 00:44:20;;;;;;;22.35;14.57;;;16.20;99.90;;;;;;5046742;28;20490;-80
2021/07/24 00:46:47;;;;;;;20.92;14.45;;;16.20;99.90;;;;;;5046952;28;20688;-80
2021/07/24 00:49:15;;;;;;;22.70;14.02;;;16.20;99.90;;;;;;5046304;28;20072;-80
2021/07/24 00:51:46;;;;;;;20.20;13.60;;;16.20;99.90;;;;;;5046811;28;20040;-80
2021/07/24 00:54:12;;;;;;;18.80;13.85;;;16.20;99.90;;;;;;5034791;28;20033;-80
2021/07/24 00:56:39;;;;;;;18.20;14.00;;;16.10;99.90;;;;;;5046470;28;20021;-80
2021/07/24 00:59:05;;;;;;;22.05;15.73;;;16.10;99.90;;;;;;5046418;28;20357;-80
2021/07/24 01:01:30;;;;;;;21.00;15.63;;;16.10;99.90;;;;;;5046116;28;20021;-80
2021/07/24 01:03:56;;;;;;;20.35;15.40;;;16.10;99.90;;;;;;5037659;28;20100;-80
2021/07/24 01:06:22;;;;;;;20.70;15.63;;;16.10;99.90;;;;;;5041351;28;20035;-80
2021/07/24 01:08:49;;;;;;;23.30;16.10;;;16.10;99.90;;;;;;5044553;28;20049;-80
2021/07/24 01:11:16;;;;;;;21.23;16.27;;;16.10;99.90;;;;;;5046382;28;20135;-80
2021/07/24 01:13:42;;;;;;;20.42;15.57;;;16.10;99.90;;;;;;5046187;28;20025;-80
2021/07/24 01:16:09;;;;;;;21.73;15.60;;;16.10;99.90;;;;;;5034995;28;20026;-80
2021/07/24 01:18:36;;;;;;;20.48;15.05;;;16.10;99.90;;;;;;5043027;28;20017;-80
2021/07/24 01:21:07;;;;;;;18.10;13.90;;;16.00;99.90;;;;;;5046380;28;20029;-80
2021/07/24 01:23:33;;;;;;;18.15;14.75;;;16.00;99.90;;;;;;5044392;28;20029;-80
2021/07/24 01:25:59;;;;;;;19.83;14.38;;;16.00;99.90;;;;;;5044918;28;20182;-80
2021/07/24 01:28:34;;;;;;;21.15;14.32;;;16.00;99.90;;;;;;5046019;28;20037;-80
2021/07/24 01:31:01;;;;;;;;;;;15.90;99.90;;;;;;5046543;28;20076;-80
2021/07/24 01:33:27;;;;;;;21.92;14.68;;;15.90;99.90;;;;;;5032663;28;20319;-80
2021/07/24 01:35:53;;;;;;;19.20;14.95;;;15.80;99.90;;;;;;5037786;28;20060;-80
2021/07/24 01:38:19;;;;;;;17.48;13.35;;;15.80;99.90;;;;;;5025343;28;20022;-80
2021/07/24 01:40:45;;;;;;;22.38;15.38;;;15.80;99.90;;;;;;5024806;28;20041;-80
2021/07/24 01:43:11;;;;;;;16.85;13.32;;;15.70;99.90;;;;;;5026247;28;20038;-80
2021/07/24 01:45:39;;;;;;;21.80;14.73;;;15.70;99.90;;;;;;5026087;28;20029;-80
2021/07/24 01:48:11;;;;;;;22.77;15.25;;;15.70;99.90;;;;;;5025847;28;20081;-80
2021/07/24 01:53:24;;;;;;;21.10;14.32;;;15.60;99.90;;;;;;5026109;28;20386;-80
2021/07/24 01:55:53;;;;;;;21.58;15.27;;;15.60;99.90;;;;;;5026180;28;20026;-80
2021/07/24 01:58:34;;;;;;;21.15;14.35;;;15.60;99.90;;;;;;5025918;28;20030;-80
2021/07/24 02:01:03;;;;;;;21.40;13.93;;;15.60;99.90;;;;;;5025936;28;20034;-80
2021/07/24 02:03:58;;;;;;;19.27;13.20;;;15.60;99.90;;;;;;5025696;28;20040;-80
2021/07/24 02:06:24;;;;;;;23.27;14.55;;;15.60;99.90;;;;;;5026302;28;20095;-80
2021/07/24 02:08:51;;;;;;;19.60;13.18;;;15.50;99.90;;;;;;5025816;28;20808;-80
2021/07/24 02:11:19;;;;;;;19.25;13.57;;;15.50;99.90;;;;;;5025611;28;20497;-80
2021/07/24 02:13:47;;;;;;;20.65;14.80;;;15.50;99.90;;;;;;5025555;28;20136;-80
2021/07/24 02:16:13;;;;;;;16.85;13.52;;;15.50;99.90;;;;;;5026726;28;20036;-80
2021/07/24 02:18:40;;;;;;;18.50;13.68;;;15.40;99.90;;;;;;5029516;28;20029;-80
2021/07/24 02:21:07;;;;;;;18.98;13.63;;;15.40;99.90;;;;;;5029670;28;20025;-80
2021/07/24 02:23:33;;;;;;;17.42;13.82;;;15.40;99.90;;;;;;5029426;28;20037;-80
2021/07/24 02:25:58;;;;;;;22.75;14.15;;;15.30;99.90;;;;;;5029591;28;20381;-80
2021/07/24 02:28:24;;;;;;;18.77;13.40;;;15.30;99.90;;;;;;5029679;28;20851;-80
2021/07/24 02:30:49;;;;;;;17.63;13.65;;;15.30;99.90;;;;;;5029177;28;20402;-80
2021/07/24 02:33:15;;;;;;;18.80;13.65;;;15.30;99.90;;;;;;5029695;28;20029;-80
2021/07/24 02:35:41;;;;;;;16.70;13.43;;;15.20;99.90;;;;;;5027528;28;20064;-80
2021/07/24 02:38:06;;;;;;;19.55;13.07;;;15.20;99.90;;;;;;5029182;28;20096;-80
2021/07/24 02:40:33;;;;;;;19.10;13.43;;;15.10;99.90;;;;;;5029097;28;20037;-80
2021/07/24 02:42:59;;;;;;;16.85;13.55;;;15.10;99.90;;;;;;5029290;28;20079;-80
2021/07/24 02:45:24;;;;;;;20.35;14.10;;;15.10;99.90;;;;;;5029031;28;20060;-80
2021/07/24 02:47:50;;;;;;;16.80;12.20;;;15.10;99.90;;;;;;5028915;28;20049;-80
2021/07/24 02:50:16;;;;;;;18.65;13.65;;;15.00;99.90;;;;;;5028987;28;20151;-80
2021/07/24 02:52:42;;;;;;;16.48;12.90;;;15.00;99.90;;;;;;5027319;28;20079;-80
2021/07/24 02:55:08;;;;;;;20.10;14.30;;;15.00;99.90;;;;;;5029122;28;20108;-80
2021/07/24 02:57:33;;;;;;;17.25;13.18;;;15.00;99.90;;;;;;5028774;28;20029;-80
2021/07/24 02:59:59;;;;;;;16.25;13.02;;;15.00;99.90;;;;;;5028660;28;20556;-80
2021/07/24 03:02:25;;;;;;;16.30;13.25;;;14.90;99.90;;;;;;5028733;28;20033;-80
2021/07/24 03:04:50;;;;;;;18.02;13.43;;;14.90;99.90;;;;;;5028633;28;20720;-80
2021/07/24 03:07:16;;;;;;;20.15;13.60;;;14.90;99.90;;;;;;5028730;28;20096;-80
2021/07/24 03:09:41;;;;;;;18.52;13.55;;;14.80;99.90;;;;;;5028303;28;20029;-79
2021/07/24 03:12:07;;;;;;;19.73;13.32;;;14.80;99.90;;;;;;5029077;28;20116;-80
2021/07/24 03:14:33;;;;;;;15.25;13.18;;;14.80;99.90;;;;;;5029164;28;20863;-80
2021/07/24 03:16:58;;;;;;;17.05;12.50;;;14.80;99.90;;;;;;5028345;28;20025;-80
2021/07/24 03:19:24;;;;;;;16.38;13.70;;;14.80;99.90;;;;;;5028487;28;20041;-80
2021/07/24 03:21:49;;;;;;;18.08;13.73;;;14.80;99.90;;;;;;5026850;28;20065;-80
2021/07/24 03:24:16;;;;;;;18.08;14.25;;;14.80;99.90;;;;;;5028309;28;20135;-79
2021/07/24 03:26:42;;;;;;;17.75;12.95;;;14.70;99.90;;;;;;5028264;28;20116;-80
2021/07/24 03:29:08;;;;;;;15.65;12.63;;;14.70;99.90;;;;;;5028287;28;20105;-79
2021/07/24 03:31:34;;;;;;;19.17;13.45;;;14.70;99.90;;;;;;5028247;28;20501;-80
2021/07/24 03:34:00;;;;;;;19.60;13.60;;;14.70;99.90;;;;;;5026630;28;20504;-80
2021/07/24 03:36:26;;;;;;;18.08;14.15;;;14.70;99.90;;;;;;5027914;28;20140;-80
2021/07/24 03:38:51;;;;;;;17.48;13.38;;;14.70;99.90;;;;;;5027315;28;20025;-80
2021/07/24 03:41:17;;;;;;;18.30;13.90;;;14.70;99.90;;;;;;5028128;28;20033;-80
2021/07/24 03:43:43;;;;;;;18.58;13.52;;;14.70;99.90;;;;;;5027626;28;20041;-80
2021/07/24 03:46:15;;;;;;;19.60;13.82;;;14.70;99.90;;;;;;5027796;28;20061;-80
2021/07/24 03:48:42;;;;;;;20.42;14.00;;;14.70;99.90;;;;;;5026513;28;20029;-80
2021/07/24 03:51:14;;;;;;;21.42;14.52;;;14.70;99.90;;;;;;5027619;28;20045;-80
2021/07/24 03:53:41;;;;;;;23.77;14.43;;;14.60;99.90;;;;;;5028166;28;20025;-79
2021/07/24 03:56:20;;;;;;;20.00;14.68;;;14.60;99.90;;;;;;5032194;28;20055;-80
2021/07/24 03:58:48;;;;;;;18.45;14.70;;;14.60;99.90;;;;;;5046114;28;20074;-79
2021/07/24 04:01:14;;;;;;;20.58;16.50;;;14.70;99.90;;;;;;5040760;28;20036;-79
2021/07/24 04:03:39;;;;;;;26.30;17.10;;;14.70;99.90;;;;;;5026917;28;20025;-80
2021/07/24 04:06:13;;;;;;;24.45;17.48;;;14.70;99.90;;;;;;5027496;28;20117;-80
2021/07/24 04:08:39;;;;;;;21.23;17.20;;;14.80;99.90;;;;;;5031917;28;20047;-80
2021/07/24 04:11:05;;;;;;;23.83;17.52;;;14.90;99.90;;;;;;5046189;28;20033;-80
2021/07/24 04:13:32;;;;;;;23.63;15.55;;;14.90;99.90;;;;;;5046023;28;20347;-80
2021/07/24 04:15:59;;;;;;;20.52;13.40;;;15.00;99.90;;;;;;5029979;28;20110;-80
2021/07/24 04:18:29;;;;;;;18.92;13.32;;;15.00;99.90;;;;;;5034583;28;20029;-80
2021/07/24 04:20:54;;;;;;;22.13;14.50;;;15.00;99.90;;;;;;5038649;28;20024;-80
2021/07/24 04:23:20;;;;;;;24.35;13.93;;;15.00;99.90;;;;;;5043247;28;20020;-80
2021/07/24 04:25:45;;;;;;;21.08;15.43;;;15.00;99.90;;;;;;5042086;28;20033;-80
2021/07/24 04:28:11;;;;;;;22.08;14.63;;;15.00;99.90;;;;;;5035859;28;20029;-80
2021/07/24 04:30:36;;;;;;;22.98;14.35;;;15.10;99.90;;;;;;5035739;28;20041;-78
2021/07/24 04:33:02;;;;;;;19.70;14.82;;;15.00;99.90;;;;;;5034808;28;20068;-80
2021/07/24 04:35:28;;;;;;;24.05;14.40;;;15.00;99.90;;;;;;5035880;28;20060;-80
2021/07/24 04:37:53;;;;;;;23.02;15.05;;;15.00;99.90;;;;;;5037777;28;20025;-79
2021/07/24 04:40:19;;;;;;;25.70;16.65;;;15.00;99.90;;;;;;5030026;28;20779;-80
2021/07/24 04:42:44;;;;;;;21.98;17.10;;;15.10;99.90;;;;;;5027414;28;20025;-79
2021/07/24 04:45:10;;;;;;;24.38;16.60;;;15.10;99.90;;;;;;5028664;28;20029;-80
2021/07/24 04:47:36;;;;;;;25.83;16.08;;;15.10;99.90;;;;;;5028191;28;20536;-74
2021/07/24 04:50:01;;;;;;;23.02;16.58;;;15.10;99.90;;;;;;5027638;28;20071;-75
2021/07/24 04:52:29;;;;;;;26.02;16.45;;;15.20;99.90;;;;;;5028095;28;20033;-74
2021/07/24 04:54:59;;;;;;;21.90;16.90;;;15.20;99.90;;;;;;5028916;28;20081;-79
2021/07/24 04:57:30;;;;;;;22.58;16.50;;;15.30;99.90;;;;;;5027139;28;20029;-77
2021/07/24 04:59:56;;;;;;;21.77;15.45;;;15.40;99.90;;;;;;5026800;28;20093;-77
2021/07/24 05:02:21;;;;;;;22.15;15.68;;;15.50;99.90;;;;;;5026720;28;20030;-78
2021/07/24 05:04:48;;;;;;;20.90;14.70;;;15.60;99.90;;;;;;5026494;28;20029;-77
2021/07/24 05:07:16;;;;;;;24.23;16.30;;;15.70;99.90;;;;;;5026587;28;20504;-77
2021/07/24 05:09:42;;;;;;;28.33;17.10;;;15.90;99.90;;;;;;5026452;28;20038;-77
2021/07/24 05:12:13;;;;;;;20.90;15.48;;;15.90;99.90;;;;;;5024954;28;20423;-77
2021/07/24 05:14:40;;;;;;;22.67;15.27;;;16.10;99.90;;;;;;5025992;28;20430;-77
2021/07/24 05:17:08;;;;;;;23.27;15.52;;;16.20;99.90;;;;;;5026166;28;20025;-77
2021/07/24 05:19:40;;;;;;;21.08;16.02;;;16.30;99.90;;;;;;5026658;28;20766;-78
2021/07/24 05:22:09;;;;;;;18.85;15.05;;;16.40;99.90;;;;;;5026272;28;20060;-77
2021/07/24 05:24:35;;;;;;;19.00;15.07;;;16.50;99.90;;;;;;5026472;28;20029;-77
2021/07/24 05:27:01;;;;;;;22.65;15.40;;;16.60;99.90;;;;;;5026103;28;20409;-78
2021/07/24 05:29:27;;;;;;;20.92;14.95;;;16.80;99.90;;;;;;5026019;28;20045;-78
2021/07/24 05:31:53;;;;;;;21.35;14.88;;;16.90;99.90;;;;;;5026300;28;20080;-78
2021/07/24 05:34:18;;;;;;;23.23;15.55;;;17.10;99.90;;;;;;5026035;28;20088;-78
2021/07/24 05:36:44;;;;;;;19.75;15.73;;;17.20;99.90;;;;;;5026230;28;20107;-78
2021/07/24 05:39:10;;;;;;;19.83;14.93;;;17.40;99.90;;;;;;5026320;28;20029;-78
2021/07/24 05:41:35;;;;;;;24.90;15.75;;;17.60;99.90;;;;;;5026200;28;20129;-78
2021/07/24 05:44:01;;;;;;;20.77;14.93;;;17.70;99.90;;;;;;5026324;28;20060;-78
2021/07/24 05:46:27;;;;;;;23.42;16.08;;;17.80;99.90;;;;;;5026348;28;20804;-78
2021/07/24 05:48:53;;;;;;;21.08;15.38;;;17.90;99.90;;;;;;5026003;28;20049;-78
2021/07/24 05:51:19;;;;;;;18.70;15.18;;;18.00;99.90;;;;;;5026835;28;20033;-78
2021/07/24 05:53:44;;;;;;;22.00;15.55;;;18.10;99.90;;;;;;5030135;28;20105;-78
2021/07/24 05:56:10;;;;;;;22.70;14.90;;;18.30;99.90;;;;;;5029498;28;20048;-78
2021/07/24 05:58:35;;;;;;;17.90;14.20;;;18.50;99.90;;;;;;5030032;28;20382;-78
2021/07/24 06:01:01;;;;;;;21.05;16.50;;;18.60;99.90;;;;;;5029989;28;20026;-78
2021/07/24 06:03:26;;;;;;;23.00;14.68;;;18.80;99.90;;;;;;5029754;28;20065;-78
2021/07/24 06:05:52;;;;;;;17.50;13.98;;;19.00;99.90;;;;;;5029970;28;20038;-78
2021/07/24 06:08:18;;;;;;;21.20;14.48;;;19.30;99.90;;;;;;5029364;28;20108;-78
2021/07/24 06:10:44;;;;;;;19.33;13.02;;;19.50;99.90;;;;;;5030191;28;20120;-78
2021/07/24 06:13:11;;;;;;;19.45;13.10;;;19.70;99.90;;;;;;5034767;28;20029;-74
2021/07/24 06:15:44;;;;;;;17.73;13.43;;;20.00;99.90;;;;;;5035883;28;20381;-74
2021/07/24 06:18:09;;;;;;;20.75;12.63;;;20.20;99.90;;;;;;5033445;28;20030;-74
2021/07/24 06:20:40;;;;;;;19.67;13.50;;;20.30;99.90;;;;;;5034484;28;20378;-78
2021/07/24 06:23:06;;;;;;;23.70;13.93;;;20.40;99.90;;;;;;5033284;28;20030;-73
2021/07/24 06:25:31;;;;;;;18.73;13.35;;;20.30;99.90;;;;;;5036672;28;20044;-74
2021/07/24 06:27:57;;;;;;;21.52;13.70;;;20.30;99.90;;;;;;5036388;28;20034;-74
2021/07/24 06:30:22;;;;;;;19.55;12.40;;;20.30;99.90;;;;;;5035975;28;20192;-74
2021/07/24 06:32:48;;;;;;;17.02;13.02;;;20.30;99.90;;;;;;5031485;28;20025;-78
2021/07/24 06:35:13;;;;;;;17.20;13.30;;;20.20;99.90;;;;;;5026903;28;20409;-78
2021/07/24 06:37:39;;;;;;;17.02;13.00;;;20.20;99.90;;;;;;5026272;28;20120;-78
2021/07/24 06:40:05;;;;;;;17.33;13.13;;;20.30;99.90;;;;;;5026176;28;20433;-78
2021/07/24 06:42:31;;;;;;;18.13;12.50;;;20.40;99.90;;;;;;5026374;28;20036;-78
2021/07/24 06:44:56;;;;;;;17.58;13.40;;;20.50;99.90;;;;;;5026097;28;20925;-78
2021/07/24 06:47:22;;;;;;;16.45;13.00;;;20.80;99.90;;;;;;5026419;28;20037;-78
2021/07/24 06:49:48;;;;;;;19.35;13.02;;;20.90;99.90;;;;;;5026223;28;20033;-78
2021/07/24 06:52:14;;;;;;;16.08;13.07;;;21.00;99.90;;;;;;5025685;28;20033;-78
2021/07/24 06:54:40;;;;;;;19.23;13.02;;;21.20;99.90;;;;;;5026171;28;20420;-78
2021/07/24 06:57:06;;;;;;;21.98;13.90;;;21.20;99.90;;;;;;5026678;28;20048;-78
2021/07/24 06:59:32;;;;;;;20.98;13.50;;;21.40;99.90;;;;;;5026073;28;20030;-79
2021/07/24 07:01:59;;;;;;;18.75;13.10;;;21.60;99.90;;;;;;5025933;28;20030;-78
2021/07/24 07:04:26;;;;;;;15.85;12.38;;;21.80;99.90;;;;;;5026212;28;20359;-78
2021/07/24 07:06:51;;;;;;;18.00;13.07;;;21.90;99.90;;;;;;5026346;28;20033;-78
2021/07/24 07:09:17;;;;;;;15.23;12.82;;;22.00;99.90;;;;;;5025982;28;20033;-78
2021/07/24 07:11:43;;;;;;;16.92;13.65;;;22.10;99.90;;;;;;5024165;28;20041;-78
2021/07/24 07:14:08;;;;;;;16.90;12.93;;;22.10;99.90;;;;;;5026127;28;20041;-78
2021/07/24 07:16:34;;;;;;;17.27;12.82;;;22.00;99.90;;;;;;5025689;28;20083;-78
2021/07/24 07:19:00;;;;;;;16.83;12.70;;;22.00;99.90;;;;;;5025923;28;20857;-78
2021/07/24 07:21:25;;;;;;;17.52;13.02;;;22.10;99.90;;;;;;5025926;28;20554;-78
2021/07/24 07:23:51;;;;;;;18.45;13.00;;;22.10;99.90;;;;;;5025119;28;20025;-78
2021/07/24 07:26:24;;;;;;;18.83;12.30;;;22.10;99.90;;;;;;5025399;28;20406;-78
2021/07/24 07:28:50;;;;;;;26.55;13.63;;;22.10;99.90;;;;;;5025581;28;20554;-79
2021/07/24 07:31:16;;;;;;;16.50;12.82;;;22.10;99.90;;;;;;5034043;28;20148;-74
2021/07/24 07:33:41;;;;;;;18.95;13.57;;;22.10;99.90;;;;;;5035047;28;20101;-74
2021/07/24 07:36:07;;;;;;;20.85;13.45;;;22.10;99.90;;;;;;5035154;28;20025;-74
2021/07/24 07:38:32;;;;;;;18.65;12.95;;;22.10;99.90;;;;;;5034875;28;20436;-74
2021/07/24 07:40:58;;;;;;;19.67;12.55;;;22.10;99.90;;;;;;5033608;28;20061;-74
2021/07/24 07:43:23;;;;;;;18.23;12.75;;;22.10;99.90;;;;;;5033729;28;20437;-74
2021/07/24 07:45:49;;;;;;;17.60;12.68;;;22.10;99.90;;;;;;5034988;28;20102;-74
2021/07/24 07:48:15;;;;;;;22.73;14.43;;;22.10;99.90;;;;;;5034623;28;20419;-74
2021/07/24 07:50:41;;;;;;;20.30;12.70;;;21.80;99.90;;;;;;5034821;28;20083;-74
2021/07/24 07:53:07;;;;;;;18.95;13.18;;;21.80;99.90;;;;;;5034815;28;20025;-74
2021/07/24 07:55:32;;;;;;;17.17;12.95;;;21.80;99.90;;;;;;5035024;28;20352;-74
2021/07/24 07:57:58;;;;;;;15.02;12.15;;;21.80;99.90;;;;;;5034419;28;20022;-74
2021/07/24 08:00:24;;;;;;;17.67;12.65;;;21.70;99.90;;;;;;5034671;28;20083;-74
2021/07/24 08:02:54;;;;;;;17.92;12.48;;;21.70;99.90;;;;;;5034582;28;20112;-74
2021/07/24 08:05:20;;;;;;;18.92;13.10;;;21.60;99.90;;;;;;5034350;28;20021;-74
2021/07/24 08:07:46;;;;;;;16.95;12.25;;;21.60;99.90;;;;;;5034473;28;20025;-74
2021/07/24 08:10:11;;;;;;;18.40;13.13;;;21.60;99.90;;;;;;5034678;28;20029;-74
2021/07/24 08:12:37;;;;;;;16.17;12.48;;;21.50;99.90;;;;;;5034436;28;20060;-74
2021/07/24 08:15:03;;;;;;;20.73;12.60;;;21.60;99.90;;;;;;5033271;28;20037;-74
2021/07/24 08:17:29;;;;;;;15.88;11.93;;;21.60;99.90;;;;;;5034611;28;20071;-74
2021/07/24 08:19:54;;;;;;;18.77;12.73;;;21.60;99.90;;;;;;5034463;28;20112;-74
2021/07/24 08:22:20;;;;;;;17.40;12.20;;;21.60;99.90;;;;;;5032527;28;20108;-74
2021/07/24 08:24:45;;;;;;;20.25;13.52;;;21.70;99.90;;;;;;5033917;28;20033;-75
2021/07/24 08:27:12;;;;;;;17.52;13.23;;;21.80;99.90;;;;;;5030905;28;20034;-80
2021/07/24 08:29:38;;;;;;;18.48;12.93;;;21.80;99.90;;;;;;5024405;28;20080;-79
2021/07/24 08:32:06;;;;;;;15.70;12.75;;;21.70;99.90;;;;;;5024227;28;20033;-80
2021/07/24 08:34:32;;;;;;;20.85;13.30;;;21.70;99.90;;;;;;5024347;28;20052;-79
2021/07/24 08:36:57;;;;;;;19.25;13.23;;;21.80;99.90;;;;;;5024229;28;20029;-79
2021/07/24 08:39:23;;;;;;;22.20;14.20;;;21.80;99.90;;;;;;5024898;28;20049;-79
2021/07/24 08:41:49;;;;;;;22.60;13.15;;;21.80;99.90;;;;;;5024124;28;20033;-79
2021/07/24 08:44:14;;;;;;;19.98;13.13;;;21.80;99.90;;;;;;5024138;28;20475;-79
2021/07/24 08:46:40;;;;;;;18.20;13.18;;;21.80;99.90;;;;;;5024953;28;20026;-79
2021/07/24 08:49:05;;;;;;;19.25;12.45;;;21.70;99.90;;;;;;5025151;28;20025;-79
2021/07/24 08:51:33;;;;;;;19.58;13.15;;;21.80;99.90;;;;;;5029860;28;20078;-79
2021/07/24 08:53:59;;;;;;;19.25;12.82;;;21.80;99.90;;;;;;5032478;28;20033;-79
2021/07/24 08:56:31;;;;;;;19.48;12.80;;;21.80;99.90;;;;;;5024240;28;20021;-79
2021/07/24 08:58:59;;;;;;;18.42;12.95;;;21.70;99.90;;;;;;5024484;28;20025;-79
2021/07/24 09:01:28;;;;;;;20.25;13.85;;;21.70;99.90;;;;;;5024215;28;20022;-79
2021/07/24 09:03:55;;;;;;;16.88;13.38;;;21.70;99.90;;;;;;5024737;28;20029;-79
2021/07/24 09:06:22;;;;;;;19.50;13.32;;;21.60;99.90;;;;;;5023837;28;20120;-79
2021/07/24 09:08:50;;;;;;;19.58;13.52;;;21.50;99.90;;;;;;5027882;28;20032;-74
2021/07/24 09:11:16;;;;;;;22.77;13.98;;;21.50;99.90;;;;;;5032965;28;20061;-74
2021/07/24 09:13:42;;;;;;;21.45;14.18;;;21.30;99.90;;;;;;5033379;28;20033;-74
2021/07/24 09:16:08;;;;;;;19.38;13.93;;;21.30;99.90;;;;;;5033216;28;20021;-75
2021/07/24 09:18:34;;;;;;;21.02;14.02;;;21.20;99.90;;;;;;5033058;28;20022;-74
2021/07/24 09:21:00;;;;;;;25.83;15.60;;;21.20;99.90;;;;;;5033405;28;20075;-74
2021/07/24 09:23:27;;;;;;;20.42;15.25;;;21.20;99.90;;;;;;5027602;28;20033;-80
2021/07/24 09:25:53;;;;;;;18.75;12.93;;;21.20;99.90;;;;;;5024139;28;20155;-79
2021/07/24 09:28:19;;;;;;;25.40;14.07;;;21.30;99.90;;;;;;5022795;28;20132;-79
2021/07/24 09:30:45;;;;;;;23.83;14.55;;;21.40;99.90;;;;;;5022738;28;20866;-79
2021/07/24 09:33:13;;;;;;;20.17;14.85;;;21.50;99.90;;;;;;5024755;28;20030;-78
2021/07/24 09:35:39;;;;;;;20.27;14.00;;;21.90;99.90;;;;;;5039317;28;20038;-78
2021/07/24 09:38:06;;;;;;;18.75;13.88;;;22.20;99.90;;;;;;5024040;28;20034;-78
2021/07/24 09:40:35;;;;;;;16.65;13.15;;;22.40;99.90;;;;;;5022401;28;20378;-78
2021/07/24 09:43:02;;;;;;;19.42;13.50;;;22.80;99.90;;;;;;5024552;28;20031;-78
2021/07/24 09:45:27;;;;;;;18.40;13.35;;;23.00;99.90;;;;;;5024042;28;20029;-78
2021/07/24 09:47:54;;;;;;;24.10;13.35;;;23.10;99.90;;;;;;5023964;28;20040;-78
2021/07/24 09:50:21;;;;;;;21.63;13.15;;;23.20;99.90;;;;;;5028453;28;20053;-74
2021/07/24 09:52:51;;;;;;;17.67;14.05;;;23.30;99.90;;;;;;5032768;28;20071;-74
2021/07/24 09:55:25;;;;;;;20.05;12.80;;;23.40;99.90;;;;;;5032902;28;20032;-74
2021/07/24 09:57:52;;;;;;;18.27;13.27;;;23.30;99.90;;;;;;5032720;28;20421;-74
2021/07/24 10:00:24;;;;;;;20.63;12.25;;;23.30;99.90;;;;;;5032761;28;20471;-74
2021/07/24 10:03:01;;;;;;;24.38;12.25;;;23.40;99.90;;;;;;5032524;28;20112;-74
2021/07/24 10:05:36;;;;;;;19.08;12.68;;;23.70;99.90;;;;;;5029156;28;20033;-79
2021/07/24 10:08:08;;;;;;;18.65;11.82;;;23.80;99.90;;;;;;5023768;28;20029;-78
2021/07/24 10:10:37;;;;;;;15.57;11.60;;;23.70;99.90;;;;;;5023616;28;20049;-78
2021/07/24 10:13:08;;;;;;;21.15;12.48;;;23.70;99.90;;;;;;5023484;28;20037;-78
2021/07/24 10:15:41;;;;;;;19.48;12.68;;;23.70;99.90;;;;;;5023943;28;20032;-78
2021/07/24 10:18:12;;;;;;;18.08;12.38;;;23.70;99.90;;;;;;5023453;28;20025;-78
2021/07/24 10:20:39;;;;;;;16.75;11.93;;;23.70;99.90;;;;;;5021738;28;20153;-79
2021/07/24 10:23:06;;;;;;;15.68;11.82;;;23.80;99.90;;;;;;5023638;28;20025;-78
2021/07/24 10:25:56;;;;;;;18.65;12.15;;;24.00;99.90;;;;;;5023973;28;20033;-78
2021/07/24 10:28:36;;;;;;;18.23;11.57;;;24.40;99.90;;;;;;5017271;28;20551;-78
2021/07/24 10:31:10;;;;;;;22.00;12.10;;;24.60;99.90;;;;;;5022397;28;20696;-78
2021/07/24 10:33:36;;;;;;;16.90;11.95;;;25.00;99.90;;;;;;5023518;28;20021;-79
2021/07/24 10:36:15;;;;;;;19.92;11.77;;;25.10;99.90;;;;;;5023891;28;20040;-79
2021/07/24 10:39:02;;;;;;;18.38;12.32;;;25.20;99.90;;;;;;5026884;28;20021;-79
2021/07/24 10:41:31;;;;;;;16.20;11.25;;;25.40;99.90;;;;;;5015000;28;20026;-74
2021/07/24 10:44:08;;;;;;;16.10;11.38;;;25.60;99.90;;;;;;5016353;28;20109;-75
2021/07/24 10:46:46;;;;;;;16.25;11.13;;;25.80;99.90;;;;;;5014822;28;20037;-75
2021/07/24 10:49:33;;;;;;;15.68;10.85;;;25.80;99.90;;;;;;5016145;28;20471;-75
2021/07/24 10:52:03;;;;;;;16.92;11.75;;;26.00;99.90;;;;;;5016074;28;20478;-74
2021/07/24 10:54:34;;;;;;;14.02;10.75;;;26.30;99.90;;;;;;5016028;28;20056;-75
2021/07/24 10:57:00;;;;;;;14.63;11.30;;;26.50;99.90;;;;;;5020418;28;20040;-79
2021/07/24 10:59:27;;;;;;;17.00;10.90;;;26.70;99.90;;;;;;5042304;28;20037;-79
2021/07/24 11:01:57;;;;;;;15.70;11.13;;;26.70;99.90;;;;;;5027049;28;20363;-79
2021/07/24 11:04:42;;;;;;;17.25;11.05;;;27.10;99.90;;;;;;5026597;28;20475;-79
2021/07/24 11:07:14;;;;;;;20.38;11.68;;;27.30;99.90;;;;;;5026887;28;20847;-79
2021/07/24 11:09:44;;;;;;;14.85;10.68;;;27.20;99.90;;;;;;5026644;28;20111;-79
2021/07/24 11:12:14;;;;;;;16.55;10.55;;;27.60;99.90;;;;;;5026751;28;20026;-79
2021/07/24 11:14:42;;;;;;;12.77;9.98;;;27.70;99.90;;;;;;5028219;28;20076;-78
2021/07/24 11:17:08;;;;;;;14.48;10.75;;;27.60;99.90;;;;;;5029671;28;20047;-79
2021/07/24 11:19:34;;;;;;;14.18;10.77;;;27.90;99.90;;;;;;5029146;28;20029;-79
2021/07/24 11:22:10;;;;;;;12.35;11.00;;;27.90;99.90;;;;;;5029317;28;20025;-79
2021/07/24 11:24:36;;;;;;;14.23;10.07;;;28.00;99.90;;;;;;5029017;28;20025;-79
2021/07/24 11:27:02;;;;;;;15.45;9.93;;;28.00;99.90;;;;;;5029359;28;20394;-78
2021/07/24 11:29:28;;;;;;;14.15;10.50;;;28.10;99.90;;;;;;5028918;28;20116;-80
2021/07/24 11:31:54;;;;;;;13.32;9.88;;;28.10;99.90;;;;;;5028209;28;20410;-79
2021/07/24 11:34:21;;;;;;;14.30;9.93;;;28.30;99.90;;;;;;5028024;28;20041;-79
2021/07/24 11:36:50;;;;;;;13.77;10.18;;;28.10;99.90;;;;;;5028728;28;20025;-79
2021/07/24 11:39:16;;;;;;;15.55;10.85;;;28.10;99.90;;;;;;5029664;28;20022;-74
2021/07/24 11:41:42;;;;;;;13.23;9.95;;;27.90;99.90;;;;;;5035374;28;20091;-74
2021/07/24 11:44:08;;;;;;;11.63;9.43;;;27.80;99.90;;;;;;5033407;28;20099;-80
2021/07/24 11:46:34;;;;;;;14.60;10.85;;;27.80;99.90;;;;;;5035252;28;20025;-80
2021/07/24 11:49:03;;;;;;;12.85;10.43;;;27.60;99.90;;;;;;5028660;28;20144;-80
2021/07/24 11:51:29;;;;;;;15.40;10.73;;;27.60;99.90;;;;;;5028814;28;20033;-79
2021/07/24 11:53:56;;;;;;;15.90;10.20;;;27.60;99.90;;;;;;5028487;28;20040;-79
2021/07/24 11:56:21;;;;;;;12.68;9.75;;;27.40;99.90;;;;;;5027265;28;20712;-80
2021/07/24 11:58:54;;;;;;;15.35;10.25;;;27.30;99.90;;;;;;5028534;28;20036;-80
2021/07/24 12:01:24;;;;;;;14.77;9.93;;;27.40;99.90;;;;;;5021310;28;20128;-80
2021/07/24 12:04:09;;;;;;;14.73;10.38;;;27.30;99.90;;;;;;5028822;28;20033;-80
2021/07/24 12:06:36;;;;;;;;;;;27.30;99.90;;;;;;5023271;28;20029;-80
2021/07/24 12:09:02;;;;;;;13.68;10.52;;;27.40;99.90;;;;;;5020391;28;19936;-80
2021/07/24 12:11:28;;;;;;;15.15;10.07;;;27.40;99.90;;;;;;5028214;28;20057;-80
2021/07/24 12:14:07;;;;;;;16.55;10.88;;;27.50;99.90;;;;;;5028102;28;20018;-80
2021/07/24 12:16:38;;;;;;;14.07;9.85;;;27.60;99.90;;;;;;5020021;28;20048;-80
2021/07/24 12:19:13;;;;;;;14.05;9.30;;;28.10;99.90;;;;;;5027043;28;20036;-80
2021/07/24 12:21:39;;;;;;;15.80;9.98;;;28.40;99.90;;;;;;5019460;28;20030;-80
2021/07/24 12:24:06;;;;;;;16.20;10.18;;;28.50;99.90;;;;;;5025821;28;20136;-80
2021/07/24 12:26:36;;;;;;;16.83;10.02;;;28.40;99.90;;;;;;5026994;28;20054;-80
2021/07/24 12:29:22;;;;;;;13.25;10.02;;;28.50;99.90;;;;;;5027557;28;20041;-80
2021/07/24 12:31:53;;;;;;;16.63;10.38;;;28.60;99.90;;;;;;5026962;28;20132;-80